LFRB 301030Z AUTO 09010KT 010V120 CAVOK 24/06 Q1018 NOSIG

ElémentsDécodage
LFRB Station météo située sur l'aérodrome de BREST Guipavas
301030Z émis le 30 du mois à 10h30 UTC
AUTO Bulletin édité par un automate
09010KT vent du 090°, 10 noeuds
010V120 vent de direction variable entre 010° et 120°
CAVOK Ceiling And Visibility OK
- Visibilité de 10 Km ou plus
- Pas de nuage au-dessous de 1500m ou au-dessous de l'altitude minimale du secteur la plus élevée (si>1500m) et absence de CB
- pas de temps présent significatif
24/06 température 24°C, point de rosée 06°C
 soit une humidité relative de 31%
Q1018 la pression au niveau de la mer (QNH) est de 1018 hPa
NOSIG Pas de changement significatif prévu au cours des deux heures suivant l'heure de l'observation